Accueil
METAR-TAF:

METAR-TAF

Aéroports :

Aéroport international de Bilbao

Bilbao, Espagne

latitude: 43-18N, longitude: 002-56W, altitude: 42 m

Observation

Le bulletin a été fait il y a 30 minutes, à 01:30 UTC
Vent 2 kt de est
Température 5°C
Humidité 93%
Pression 1031 hPa
Visibilité 10 km ou plus

METAR: LEBB 210130Z AUTO 09002KT 9999 FEW045/// SCT056/// 05/04 Q1031

Heure: 03:00 (02:00 UTC)

Prévision

Le bulletin a été fait il y a 3 heures et 0 minutes, à 23:00 UTC
Prévision valable du 21 à 00 UTC au 21 à 24 UTC
Vent 3 kt de est
Visibilité 10 km ou plus
Quelques nuages à une hauteur de 3000 ft
Temporairement
du 21 à 12 UTC au 21 à 18 UTC
Vent 10 kt de nord/nord-est

TAF: LEBB 202300Z 2100/2124 10003KT 9999 FEW030 TX16/2114Z TN03/2107Z TEMPO 2112/2118 03010KT

Observations et prévisions météorologiques de plus de 4000 aéroports (messages METAR et TAF).

Les stations disponibles sont représentées par des disques jaunes et rouges sur la carte.

Passer la souris dessus pour voir le nom de la station.

Cliquer dessus pour voir les observations et prévisions météorologiques.

Pour changer de carte: cliquez sur les boutons verts avec une croix noire pour zoomer, sur le bouton vert avec un tiret pour effectuer un zoom arrière, ou sur les flèches vertes pour les cartes adjacentes.


METAR-TAF: